Accueil
METAR-TAF:

METAR-TAF

Aéroports :

Kekaha, Hawaii, États-Unis

Pacific Missile Range Facility

latitude: 22-02-11N, longitude: 159-47-11W, altitude: 4 m

Observation

Le bulletin a été fait il y a 1 heure et 3 minutes, à 05:56 UTC
Vent 3 kt de ouest
Température 27°C
Humidité 79%
Pression 1018 hPa
Visibilité: 16.1 km
Nuages fragmentés à une hauteur de 5000 ft

METAR: PHBK 270556Z AUTO 28003KT 10SM BKN050 27/23 A3005 RMK AO2 SLP177 T02720233 10300 20272 53010

Heure: 20:59 (06:59 UTC)


TAF: absent

Observations et prévisions météorologiques de plus de 4000 aéroports (messages METAR et TAF).

Les stations disponibles sont représentées par des disques jaunes et rouges sur la carte.

Passer la souris dessus pour voir le nom de la station.

Cliquer dessus pour voir les observations et prévisions météorologiques.

Pour changer de carte: cliquez sur les boutons verts avec une croix noire pour zoomer, sur le bouton vert avec un tiret pour effectuer un zoom arrière, ou sur les flèches vertes pour les cartes adjacentes.


METAR-TAF: